Beaver Creek, Minnesota
Current Conditions -  °F | °C
As of 5:34 AM on Friday 31 Oct 2014 (Local Time) from KLYV Reporting Station
Clear Clear  
Wind Chill: 18°   Ceiling: Unl
Heat Index: 27°   Visibility: 10mi
Dew Point: 21°   Wind: 8mph
Humidity: 80%   Direction: 10°N
Pressure: 30.53"   Gusts: NA
Location:  43.61°N, 96.36°W
Report Text: KLYV 311034Z AUTO 01007KT 10SM CLR M03/M06 A3053 RMK AO2
Loading
Personal Weather Stations






























Interactive Weather Map
Tropical Storm Tracking
New forecast layout! Learn more

10-Day Weather Forecast

Advertisements
Track Severe Weather on mobile